Time;durP1;ratioP1;P1;durP2;ratioP2;P2;SDS_P1;SDS_P2;PMS_P1;PMS_P2;Temp;Humidity;BMP_temperature;BMP_pressure;BME280_temperature;BME280_humidity;BME280_pressure;Samples;Min_cycle;Max_cycle;Signal;HPM_P1;HPM_P2
2023/03/14 00:02:13;;;;;;;3.33;2.77;;;9.70;99.90;;;9.91;100.00;96372.03;5235924;28;20574;-64
2023/03/14 00:04:47;;;;;;;3.13;2.87;;;9.60;99.90;;;9.83;100.00;96381.09;5236355;28;20221;-64
2023/03/14 00:07:20;;;;;;;2.87;2.67;;;9.60;99.90;;;9.80;100.00;96392.03;5238381;28;20570;-64
2023/03/14 00:09:53;;;;;;;3.10;2.80;;;9.50;99.90;;;9.77;100.00;96381.72;5233393;28;20212;-64
2023/03/14 00:12:28;;;;;;;2.73;2.63;;;9.40;99.90;;;9.86;100.00;96371.84;5237477;28;20303;-64
2023/03/14 00:15:03;;;;;;;2.60;2.40;;;9.40;99.90;;;9.89;100.00;96371.09;5231739;28;20207;-64
2023/03/14 00:17:37;;;;;;;2.10;2.00;;;9.40;99.90;;;9.84;100.00;96376.06;5242019;28;20200;-64
2023/03/14 00:20:13;;;;;;;2.00;1.90;;;9.40;99.90;;;9.95;100.00;96380.66;5242097;28;20211;-63
2023/03/14 00:22:46;;;;;;;2.20;2.00;;;9.50;99.90;;;9.93;100.00;96363.59;5236094;28;20246;-63
2023/03/14 00:25:19;;;;;;;2.23;2.10;;;9.50;99.90;;;10.00;100.00;96330.63;5241462;28;20695;-64
2023/03/14 00:27:53;;;;;;;1.90;1.80;;;9.60;99.90;;;9.99;100.00;96295.72;5239817;28;20574;-64
2023/03/14 00:30:26;;;;;;;1.83;1.73;;;9.60;99.90;;;10.00;100.00;96317.88;5240752;28;20204;-63
2023/03/14 00:32:59;;;;;;;1.80;1.70;;;9.60;99.90;;;10.04;100.00;96322.25;5242784;28;20310;-63
2023/03/14 00:35:33;;;;;;;2.07;1.87;;;9.60;99.90;;;10.03;100.00;96303.53;5239102;28;20641;-63
2023/03/14 00:38:06;;;;;;;3.00;2.50;;;9.60;99.90;;;9.91;100.00;96303.13;5235901;28;20293;-63
2023/03/14 00:40:40;;;;;;;1.97;1.80;;;9.50;99.90;;;9.78;100.00;96306.91;5243480;28;20207;-63
2023/03/14 00:43:13;;;;;;;1.87;1.77;;;9.40;99.90;;;9.69;100.00;96301.50;5241527;28;21222;-64
2023/03/14 00:45:46;;;;;;;1.55;1.48;;;9.30;99.90;;;9.69;100.00;96297.25;5233915;28;20232;-63
2023/03/14 00:48:20;;;;;;;2.00;1.80;;;9.30;99.90;;;9.67;100.00;96309.13;5242621;28;20841;-63
2023/03/14 00:50:55;;;;;;;1.42;1.33;;;9.20;99.90;;;9.64;100.00;96293.69;5237233;28;20201;-63
2023/03/14 00:53:28;;;;;;;1.50;1.50;;;9.20;99.90;;;9.63;100.00;96312.34;5243130;28;20224;-63
2023/03/14 00:56:04;;;;;;;1.70;1.60;;;9.20;99.90;;;9.68;100.00;96304.88;5235692;28;20211;-64
2023/03/14 00:58:37;;;;;;;1.83;1.73;;;9.20;99.90;;;9.67;100.00;96305.66;5238580;28;20204;-64
2023/03/14 01:01:14;;;;;;;1.60;1.50;;;9.20;99.90;;;9.70;100.00;96304.13;5232012;28;20207;-63
2023/03/14 01:03:47;;;;;;;5.40;3.37;;;9.20;99.90;;;9.77;100.00;96305.19;5235748;28;20232;-63
2023/03/14 01:06:24;;;;;;;1.92;1.83;;;9.30;99.90;;;9.80;100.00;96310.41;5240265;28;20583;-63
2023/03/14 01:08:59;;;;;;;3.00;2.47;;;9.30;99.90;;;9.84;100.00;96302.06;5233367;28;20204;-63
2023/03/14 01:11:35;;;;;;;1.80;1.70;;;9.30;99.90;;;9.84;100.00;96299.50;5233081;28;20242;-63
2023/03/14 01:14:07;;;;;;;2.03;1.93;;;9.30;99.90;;;9.87;100.00;96301.25;5241700;28;20583;-63
2023/03/14 01:16:41;;;;;;;2.13;2.03;;;9.30;99.90;;;9.87;100.00;96301.25;5241172;28;20207;-64
2023/03/14 01:19:14;;;;;;;2.40;2.20;;;9.30;99.90;;;9.84;100.00;96296.94;5236907;28;20204;-64
2023/03/14 01:21:48;;;;;;;1.70;1.60;;;9.30;99.90;;;9.88;100.00;96301.31;5241604;28;20545;-63
2023/03/14 01:24:21;;;;;;;2.20;2.00;;;9.30;99.90;;;9.86;100.00;96299.53;5242522;28;20239;-63
2023/03/14 01:26:54;;;;;;;1.97;1.83;;;9.30;99.90;;;9.85;100.00;96293.56;5241139;28;20220;-64
2023/03/14 01:29:27;;;;;;;1.67;1.58;;;9.30;99.90;;;9.90;100.00;96284.41;5237138;28;20576;-64
2023/03/14 01:32:00;;;;;;;2.00;1.90;;;9.30;99.90;;;9.93;100.00;96286.19;5233912;28;20572;-64
2023/03/14 01:34:33;;;;;;;1.90;1.80;;;9.20;99.90;;;10.03;100.00;96287.34;5231364;28;20320;-63
2023/03/14 01:37:08;;;;;;;1.60;1.50;;;9.30;99.90;;;9.94;100.00;96285.34;5226645;28;20208;-64
2023/03/14 01:39:41;;;;;;;1.50;1.40;;;9.30;99.90;;;9.93;100.00;96273.41;5236413;28;20203;-64
2023/03/14 01:42:14;;;;;;;1.40;1.40;;;9.30;99.90;;;10.06;100.00;96262.78;5229702;28;20591;-64
2023/03/14 01:44:53;;;;;;;1.60;1.50;;;9.30;99.90;;;9.98;100.00;96250.59;5237950;28;20235;-64
2023/03/14 01:47:27;;;;;;;1.58;1.58;;;9.30;99.90;;;9.86;100.00;96248.50;5244887;28;20664;-63
2023/03/14 01:50:05;;;;;;;1.42;1.42;;;9.30;99.90;;;9.85;100.00;96252.75;5238473;28;20197;-63
2023/03/14 01:52:45;;;;;;;1.57;1.47;;;9.30;99.90;;;9.84;100.00;96248.47;5235037;28;20583;-64
2023/03/14 01:55:22;;;;;;;1.48;1.48;;;9.30;99.90;;;9.81;100.00;96245.78;5235790;28;20290;-64
2023/03/14 01:58:01;;;;;;;1.58;1.58;;;9.20;99.90;;;9.80;100.00;96238.94;5240431;28;20196;-64
2023/03/14 02:00:34;;;;;;;1.67;1.67;;;9.20;99.90;;;9.75;100.00;96234.50;5230842;28;20208;-64
2023/03/14 02:03:15;;;;;;;1.40;1.40;;;9.20;99.90;;;9.76;100.00;96232.03;5231532;28;20757;-63
2023/03/14 02:05:49;;;;;;;1.80;1.70;;;9.20;99.90;;;9.75;100.00;96227.72;5228108;28;20773;-64
2023/03/14 02:08:25;;;;;;;1.50;1.40;;;9.20;99.90;;;9.75;100.00;96225.16;5238544;28;20530;-65
2023/03/14 02:10:58;;;;;;;1.45;1.45;;;9.10;99.90;;;9.72;100.00;96214.88;5236576;28;20200;-63
2023/03/14 02:13:31;;;;;;;1.50;1.40;;;9.10;99.90;;;9.73;100.00;96216.63;5238735;28;20224;-63
2023/03/14 02:16:04;;;;;;;1.35;1.27;;;9.10;99.90;;;9.77;100.00;96223.53;5237910;28;20192;-63
2023/03/14 02:18:40;;;;;;;1.43;1.43;;;9.10;99.90;;;9.77;100.00;96218.44;5235982;28;20287;-64
2023/03/14 02:21:18;;;;;;;1.80;1.55;;;9.00;99.90;;;9.79;100.00;96203.19;5242646;28;20307;-65
2023/03/14 02:24:08;;;;;;;1.50;1.40;;;9.00;99.90;;;9.80;100.00;96208.34;5239602;28;20220;-64
2023/03/14 02:27:01;;;;;;;1.60;1.48;;;9.10;99.90;;;9.83;100.00;96210.97;5235199;28;20660;-64
2023/03/14 02:29:40;;;;;;;1.40;1.40;;;9.20;99.90;;;9.92;100.00;96203.63;5240030;28;20236;-64
2023/03/14 02:32:15;;;;;;;1.60;1.50;;;9.30;99.90;;;9.84;100.00;96206.75;5239880;28;20202;-64
2023/03/14 02:34:53;;;;;;;1.80;1.70;;;9.20;99.90;;;9.76;100.00;96205.63;5236864;28;20782;-64
2023/03/14 02:37:34;;;;;;;1.40;1.40;;;9.10;99.90;;;9.81;100.00;96187.09;5235074;28;20731;-64
2023/03/14 02:40:09;;;;;;;1.05;1.05;;;9.10;99.90;;;9.97;100.00;96185.06;5239172;28;20204;-64
2023/03/14 02:42:44;;;;;;;1.50;1.50;;;9.20;99.90;;;10.06;100.00;96178.56;5235179;28;20197;-64
2023/03/14 02:45:41;;;;;;;1.40;1.40;;;9.30;99.90;;;9.90;100.00;96173.75;5240321;28;20223;-65
2023/03/14 02:48:20;;;;;;;1.40;1.40;;;9.20;99.90;;;9.82;100.00;96171.00;5237942;28;20290;-63
2023/03/14 02:50:57;;;;;;;1.30;1.30;;;9.20;99.90;;;9.91;100.00;96180.63;5233516;28;20436;-64
2023/03/14 02:53:33;;;;;;;1.40;1.40;;;9.20;99.90;;;9.81;100.00;96186.22;5239478;28;20648;-64
2023/03/14 02:56:08;;;;;;;1.67;1.67;;;9.20;99.90;;;9.74;100.00;96187.72;5240494;28;20228;-64
2023/03/14 02:58:42;;;;;;;1.15;1.15;;;9.10;99.90;;;9.70;100.00;96173.16;5234855;28;20238;-64
2023/03/14 03:01:15;;;;;;;1.53;1.43;;;9.10;99.90;;;9.72;100.00;96168.94;5235429;28;20203;-64
2023/03/14 03:03:48;;;;;;;1.43;1.33;;;9.10;99.90;;;9.72;100.00;96179.16;5236220;28;20262;-63
2023/03/14 03:06:22;;;;;;;1.30;1.30;;;9.10;99.90;;;9.81;100.00;96171.78;5244784;28;20286;-64
2023/03/14 03:08:55;;;;;;;1.27;1.20;;;9.10;99.90;;;9.68;100.00;96162.03;5237686;28;20211;-63
2023/03/14 03:11:28;;;;;;;1.60;1.50;;;9.10;99.90;;;9.67;100.00;96162.81;5240013;28;20615;-64
2023/03/14 03:14:02;;;;;;;1.38;1.27;;;9.00;99.90;;;9.65;100.00;96167.03;5234785;28;20224;-64
2023/03/14 03:16:35;;;;;;;1.47;1.37;;;9.00;99.90;;;9.65;100.00;96161.91;5234536;28;20206;-63
2023/03/14 03:19:08;;;;;;;1.67;1.58;;;9.00;99.90;;;9.61;100.00;96153.28;5234986;28;20292;-65
2023/03/14 03:21:41;;;;;;;1.60;1.50;;;9.00;99.90;;;9.58;100.00;96165.94;5241313;28;20614;-65
2023/03/14 03:24:15;;;;;;;1.57;1.47;;;9.00;99.90;;;9.54;100.00;96163.25;5242004;28;20255;-65
2023/03/14 03:26:48;;;;;;;1.50;1.40;;;8.90;99.90;;;9.59;100.00;96151.53;5240604;28;20221;-66
2023/03/14 03:29:22;;;;;;;1.20;1.20;;;8.90;99.90;;;9.37;100.00;96140.59;5236403;28;20204;-64
2023/03/14 03:31:55;;;;;;;1.90;1.80;;;8.80;99.90;;;9.35;100.00;96142.22;5240794;28;20196;-66
2023/03/14 03:34:29;;;;;;;2.03;1.50;;;8.80;99.90;;;9.29;100.00;96136.03;5242040;28;20779;-65
2023/03/14 03:37:02;;;;;;;1.47;1.47;;;8.70;99.90;;;9.28;100.00;96135.19;5240102;28;20205;-66
2023/03/14 03:39:35;;;;;;;1.60;1.50;;;8.70;99.90;;;9.20;100.00;96134.06;5242297;28;20205;-66
2023/03/14 03:42:08;;;;;;;1.70;1.60;;;8.60;99.90;;;9.20;100.00;96137.47;5243398;28;20286;-65
2023/03/14 03:44:42;;;;;;;1.90;1.80;;;8.60;99.90;;;9.16;100.00;96129.69;5249393;28;20311;-66
2023/03/14 03:47:16;;;;;;;1.77;1.40;;;8.50;99.90;;;9.14;100.00;96126.19;5239213;28;20316;-66
2023/03/14 03:49:49;;;;;;;1.70;1.70;;;8.50;99.90;;;9.11;100.00;96137.16;5242499;28;20215;-66
2023/03/14 03:52:22;;;;;;;1.40;1.40;;;8.50;99.90;;;9.11;100.00;96129.50;5243694;28;20212;-65
2023/03/14 03:54:55;;;;;;;1.77;1.70;;;8.50;99.90;;;9.03;100.00;96130.91;5238143;28;20576;-66
2023/03/14 03:57:28;;;;;;;1.70;1.60;;;8.50;99.90;;;9.04;100.00;96130.09;5237583;28;20206;-65
2023/03/14 04:00:04;;;;;;;1.70;1.60;;;8.50;99.90;;;9.08;100.00;96126.00;5235054;28;20196;-65
2023/03/14 04:02:37;;;;;;;1.67;1.58;;;8.50;99.90;;;9.00;100.00;96128.28;5236397;28;20215;-63
2023/03/14 04:05:11;;;;;;;2.00;1.90;;;8.40;99.90;;;8.89;100.00;96119.38;5235156;28;20629;-64
2023/03/14 04:07:44;;;;;;;2.17;2.07;;;8.30;99.90;;;8.92;100.00;96125.44;5242329;28;20200;-63
2023/03/14 04:10:17;;;;;;;2.07;1.97;;;8.30;99.90;;;8.90;100.00;96121.09;5240005;28;20739;-65
2023/03/14 04:12:50;;;;;;;1.83;1.70;;;8.40;99.90;;;9.12;100.00;96122.72;5240319;28;20217;-66
2023/03/14 04:15:25;;;;;;;1.90;1.80;;;8.50;99.90;;;9.03;100.00;96120.72;5237128;28;20205;-65
2023/03/14 04:17:59;;;;;;;1.90;1.80;;;8.40;99.90;;;9.01;100.00;96110.50;5243949;28;20667;-66
2023/03/14 04:20:35;;;;;;;2.00;1.90;;;8.40;99.90;;;8.95;100.00;96123.00;5238123;28;20204;-65
2023/03/14 04:23:08;;;;;;;1.93;1.83;;;8.40;99.90;;;8.97;100.00;96113.72;5235998;28;20229;-64
2023/03/14 04:25:41;;;;;;;2.40;2.20;;;8.40;99.90;;;8.82;100.00;96122.53;5242174;28;20231;-66
2023/03/14 04:28:14;;;;;;;1.70;1.60;;;8.30;99.90;;;8.87;100.00;96115.91;5237690;28;20212;-63
2023/03/14 04:30:48;;;;;;;3.30;2.37;;;8.30;99.90;;;8.86;100.00;96120.13;5247456;28;20204;-66
2023/03/14 04:33:21;;;;;;;2.13;1.90;;;8.20;99.90;;;8.86;100.00;96130.31;5238415;28;20235;-66
2023/03/14 04:35:55;;;;;;;2.23;2.10;;;8.30;99.90;;;8.79;100.00;96125.84;5240256;28;20203;-62
2023/03/14 04:38:28;;;;;;;1.80;1.80;;;8.20;99.90;;;8.80;100.00;96130.13;5241160;28;20235;-66
2023/03/14 04:41:02;;;;;;;1.93;1.60;;;8.20;99.90;;;8.89;100.00;96122.78;5238126;28;20197;-65
2023/03/14 04:43:35;;;;;;;1.90;1.80;;;8.20;99.90;;;8.84;100.00;96119.19;5240299;28;20220;-65
2023/03/14 04:46:09;;;;;;;2.30;1.80;;;8.20;99.90;;;8.83;100.00;96114.06;5239336;28;20220;-65
2023/03/14 04:48:42;;;;;;;2.20;2.00;;;8.20;99.90;;;8.73;100.00;96112.91;5244104;28;20227;-66
2023/03/14 04:51:15;;;;;;;1.90;1.80;;;8.10;99.90;;;8.70;100.00;96117.84;5238112;28;20284;-65
2023/03/14 04:53:48;;;;;;;2.00;1.90;;;8.10;99.90;;;8.67;100.00;96113.53;5236102;28;20235;-65
2023/03/14 04:56:22;;;;;;;1.80;1.70;;;8.10;99.90;;;8.67;100.00;96103.34;5241792;28;20212;-64
2023/03/14 04:58:55;;;;;;;2.10;1.90;;;8.10;99.90;;;8.65;100.00;96091.38;5235257;28;20209;-65
2023/03/14 05:01:29;;;;;;;2.10;1.90;;;8.00;99.90;;;8.66;100.00;96096.50;5236221;28;20215;-65
2023/03/14 05:04:02;;;;;;;3.00;1.87;;;8.00;99.90;;;8.61;100.00;96086.97;5236720;28;20219;-64
2023/03/14 05:06:36;;;;;;;2.33;1.77;;;8.00;99.90;;;8.58;100.00;96077.53;5239304;28;20216;-66
2023/03/14 05:09:09;;;;;;;1.90;1.80;;;8.00;99.90;;;8.60;100.00;96069.97;5233139;28;20197;-65
2023/03/14 05:11:42;;;;;;;1.80;1.70;;;8.00;99.90;;;8.60;100.00;96069.97;5232597;28;20582;-66
2023/03/14 05:14:15;;;;;;;1.90;1.80;;;8.00;99.90;;;8.62;100.00;96068.34;5242266;28;20221;-65
2023/03/14 05:16:49;;;;;;;1.90;1.80;;;8.00;99.90;;;8.55;100.00;96057.91;5239843;28;20199;-63
2023/03/14 05:19:22;;;;;;;1.87;1.77;;;8.00;99.90;;;8.56;100.00;96066.44;5234251;28;20762;-67
2023/03/14 05:21:55;;;;;;;3.10;1.90;;;8.00;99.90;;;8.54;100.00;96051.09;5232708;28;20196;-65
2023/03/14 05:24:28;;;;;;;1.90;1.63;;;7.90;99.90;;;8.60;100.00;96055.53;5232117;28;20231;-65
2023/03/14 05:27:02;;;;;;;1.93;1.83;;;8.00;99.90;;;8.57;100.00;96061.41;5230815;28;20213;-67
2023/03/14 05:29:35;;;;;;;2.07;1.87;;;7.90;99.90;;;8.60;100.00;96052.13;5234718;28;20315;-66
2023/03/14 05:32:09;;;;;;;2.73;2.07;;;8.00;99.90;;;8.55;100.00;96052.81;5234948;28;20564;-65
2023/03/14 05:34:42;;;;;;;2.13;2.00;;;7.90;99.90;;;8.48;100.00;96050.03;5241123;28;20314;-66
2023/03/14 05:37:15;;;;;;;2.43;2.23;;;7.90;99.90;;;8.47;100.00;96035.53;5234234;28;20293;-65
2023/03/14 05:39:51;;;;;;;3.37;1.87;;;7.80;99.90;;;8.40;100.00;96026.84;5239301;28;20661;-65
2023/03/14 05:42:24;;;;;;;2.93;2.70;;;7.80;99.90;;;8.42;100.00;96042.19;5235154;28;20295;-65
2023/03/14 05:44:57;;;;;;;4.43;3.30;;;7.80;99.90;;;8.55;100.00;96040.09;5241556;28;20323;-65
2023/03/14 05:47:32;;;;;;;4.37;3.87;;;7.90;99.90;;;8.49;100.00;96032.25;5233651;28;20224;-65
2023/03/14 05:50:06;;;;;;;4.00;3.30;;;7.90;99.90;;;8.42;100.00;96035.41;5236240;28;20203;-65
2023/03/14 05:52:39;;;;;;;2.93;2.73;;;7.80;99.90;;;8.48;100.00;96035.63;5240720;28;20621;-66
2023/03/14 05:55:12;;;;;;;2.70;2.50;;;7.80;99.90;;;8.48;100.00;96027.97;5239092;28;20208;-65
2023/03/14 05:57:45;;;;;;;2.77;2.43;;;7.80;99.90;;;8.62;100.00;96035.25;5233350;28;20202;-65
2023/03/14 06:00:19;;;;;;;3.53;3.23;;;7.90;99.90;;;8.59;100.00;96040.22;5230955;28;20657;-64
2023/03/14 06:02:54;;;;;;;3.57;2.90;;;7.90;99.90;;;8.53;100.00;96034.09;5231729;28;20691;-65
2023/03/14 06:05:27;;;;;;;3.27;3.00;;;7.90;99.90;;;8.49;100.00;96022.06;5233058;28;20291;-66
2023/03/14 06:08:00;;;;;;;7.63;5.17;;;7.80;99.90;;;8.53;100.00;96015.41;5234209;28;20312;-65
2023/03/14 06:10:33;;;;;;;7.73;4.70;;;7.90;99.90;;;8.53;100.00;96013.72;5245979;28;20204;-65
2023/03/14 06:13:06;;;;;;;7.53;4.90;;;7.80;99.90;;;8.59;100.00;96007.13;5236841;28;20219;-65
2023/03/14 06:15:39;;;;;;;7.20;4.07;;;7.90;99.90;;;8.54;100.00;96000.19;5240354;28;20755;-66
2023/03/14 06:18:14;;;;;;;4.93;4.00;;;7.80;99.90;;;8.56;100.00;96001.09;5232649;28;20406;-65
2023/03/14 06:20:47;;;;;;;3.00;2.17;;;7.80;99.90;;;8.56;100.00;96005.34;5236289;28;20242;-66
2023/03/14 06:23:20;;;;;;;3.17;2.23;;;7.80;99.90;;;8.49;100.00;96016.09;5239661;28;20235;-64
2023/03/14 06:25:54;;;;;;;3.37;2.40;;;7.80;99.90;;;8.49;100.00;96018.66;5236674;28;20239;-66
2023/03/14 06:28:27;;;;;;;4.57;2.70;;;7.80;99.90;;;8.46;100.00;96016.88;5239707;28;20243;-65
2023/03/14 06:31:00;;;;;;;4.17;2.40;;;7.80;99.90;;;8.42;100.00;96009.94;5238497;28;20192;-66
2023/03/14 06:33:35;;;;;;;2.70;2.50;;;7.80;99.90;;;8.46;100.00;96019.41;5235704;28;20642;-63
2023/03/14 06:36:09;;;;;;;2.37;2.17;;;7.80;99.90;;;8.55;100.00;96012.09;5236157;28;20656;-66
2023/03/14 06:38:42;;;;;;;4.13;2.10;;;7.90;99.90;;;8.58;100.00;96018.97;5234222;28;20719;-64
2023/03/14 06:41:15;;;;;;;4.17;2.30;;;7.90;99.90;;;8.85;100.00;96011.41;5240249;28;20671;-62
2023/03/14 06:43:48;;;;;;;3.97;2.30;;;8.10;99.90;;;8.78;100.00;96009.47;5241650;28;20216;-64
2023/03/14 06:46:21;;;;;;;3.70;2.40;;;8.10;99.90;;;8.78;100.00;96012.91;5239342;28;20215;-63
2023/03/14 06:48:56;;;;;;;4.10;2.33;;;8.10;99.90;;;8.86;100.00;96012.28;5232963;28;20225;-65
2023/03/14 06:51:29;;;;;;;2.67;2.27;;;8.20;99.90;;;8.84;100.00;96014.75;5242364;28;20204;-66
2023/03/14 06:54:02;;;;;;;4.20;2.27;;;8.20;99.90;;;8.79;100.00;96009.53;5247166;28;20648;-66
2023/03/14 06:56:35;;;;;;;5.83;3.00;;;8.20;99.90;;;8.81;100.00;96014.66;5244169;28;20201;-66
2023/03/14 06:59:09;;;;;;;3.43;2.60;;;8.20;99.90;;;8.85;100.00;96008.88;5227102;28;20323;-65
2023/03/14 07:01:42;;;;;;;3.30;2.47;;;8.20;99.90;;;8.82;100.00;96001.13;5240312;28;20239;-65
2023/03/14 07:04:16;;;;;;;5.27;2.60;;;8.20;99.90;;;8.86;100.00;96002.09;5243721;28;20221;-65
2023/03/14 07:06:49;;;;;;;6.23;3.07;;;8.20;99.90;;;8.89;100.00;96007.28;5252593;28;20204;-65
2023/03/14 07:09:22;;;;;;;4.60;2.97;;;8.20;99.90;;;8.96;100.00;96010.09;5240210;28;20200;-66
2023/03/14 07:11:55;;;;;;;4.30;3.20;;;8.30;99.90;;;8.95;100.00;96010.88;5260910;28;20216;-66
2023/03/14 07:14:29;;;;;;;2.97;2.63;;;8.20;99.90;;;9.03;100.00;96003.50;5263279;28;20220;-66
2023/03/14 07:17:02;;;;;;;5.50;3.40;;;8.30;99.90;;;9.02;100.00;96014.53;5237925;28;20216;-66
2023/03/14 07:19:37;;;;;;;5.70;3.40;;;8.30;99.90;;;9.11;100.00;96016.50;5253111;28;20209;-64
2023/03/14 07:22:10;;;;;;;5.43;3.60;;;8.40;99.90;;;9.19;100.00;96022.72;5226644;28;20196;-66
2023/03/14 07:24:43;;;;;;;7.30;3.40;;;8.50;99.90;;;9.35;100.00;96019.84;5227852;28;20229;-65
2023/03/14 07:27:16;;;;;;;3.08;2.53;;;8.60;99.90;;;9.52;100.00;96022.91;5245519;28;20212;-65
2023/03/14 07:29:50;;;;;;;3.00;2.70;;;8.80;99.90;;;9.74;100.00;96032.09;5237804;28;20640;-66
2023/03/14 07:32:23;;;;;;;2.40;2.22;;;9.00;99.90;;;9.85;100.00;96033.28;5229044;28;20579;-65
2023/03/14 07:34:57;;;;;;;2.42;2.13;;;9.10;99.90;;;9.94;100.00;96032.69;5232504;28;20229;-66
2023/03/14 07:37:30;;;;;;;4.00;2.20;;;9.20;99.90;;;10.09;100.00;96037.38;5232603;28;20215;-66
2023/03/14 07:40:06;;;;;;;3.25;2.30;;;9.40;99.90;;;10.44;100.00;96040.09;5235261;28;20209;-65
2023/03/14 07:42:40;;;;;;;3.03;2.15;;;9.60;99.90;;;10.71;100.00;96035.75;5255212;28;20203;-65
2023/03/14 07:45:13;;;;;;;2.35;2.00;;;10.00;99.90;;;11.13;100.00;96030.03;5231516;28;20213;-65
2023/03/14 07:47:46;;;;;;;2.28;2.00;;;10.40;99.90;;;11.49;100.00;96016.41;5247414;28;20224;-66
2023/03/14 07:50:20;;;;;;;2.97;2.00;;;10.80;99.90;;;11.67;100.00;96019.38;5235377;28;20223;-64
2023/03/14 07:52:55;;;;;;;3.47;1.77;;;11.00;99.90;;;11.98;100.00;96019.25;5252292;28;20220;-65
2023/03/14 07:55:28;;;;;;;2.75;1.90;;;11.30;99.90;;;12.07;99.26;96020.28;5234207;28;20219;-66
2023/03/14 07:58:01;;;;;;;2.22;1.63;;;11.50;99.90;;;12.30;100.00;96017.34;5234634;28;20205;-66
2023/03/14 08:00:34;;;;;;;2.38;1.65;;;11.60;99.90;;;12.47;95.72;96023.66;5234597;28;20208;-66
2023/03/14 08:03:07;;;;;;;3.08;1.40;;;12.00;99.90;;;12.58;93.50;96022.19;5230437;28;20221;-66
2023/03/14 08:05:42;;;;;;;1.58;1.45;;;12.10;99.90;;;12.85;98.10;96018.44;5226420;28;20201;-66
2023/03/14 08:08:15;;;;;;;2.33;1.40;;;12.40;99.90;;;12.98;94.41;96014.38;5226013;28;20217;-66
2023/03/14 08:10:48;;;;;;;1.52;1.40;;;12.60;99.90;;;13.08;89.48;96017.13;5226609;28;20614;-66
2023/03/14 08:13:23;;;;;;;1.83;1.52;;;12.60;99.90;;;13.17;92.84;96020.69;5240377;28;20221;-66
2023/03/14 08:15:56;;;;;;;1.65;1.23;;;12.70;99.90;;;13.19;88.99;96013.88;5238070;28;20211;-66
2023/03/14 08:18:29;;;;;;;1.25;1.20;;;12.80;99.90;;;13.33;89.53;96009.88;5232071;28;20255;-66
2023/03/14 08:21:04;;;;;;;2.05;1.38;;;12.90;99.90;;;13.34;86.60;96003.91;5225446;28;20201;-65
2023/03/14 08:23:37;;;;;;;1.40;1.30;;;12.90;99.90;;;13.49;89.60;96000.72;5225685;28;20220;-65
2023/03/14 08:26:10;;;;;;;2.03;1.52;;;13.10;99.90;;;13.64;88.15;95998.38;5242592;28;20292;-66
2023/03/14 08:28:43;;;;;;;1.88;1.23;;;13.20;99.90;;;13.70;87.26;95987.34;5239951;28;20709;-65
2023/03/14 08:31:16;;;;;;;1.50;1.40;;;13.30;99.90;;;13.75;84.57;96001.09;5229666;28;20255;-66
2023/03/14 08:33:51;;;;;;;2.13;1.50;;;13.30;99.90;;;13.71;78.42;95989.09;5237295;28;20240;-65
2023/03/14 08:36:26;;;;;;;1.48;1.38;;;13.30;99.90;;;13.76;83.86;95995.13;5233967;28;20217;-65
2023/03/14 08:38:59;;;;;;;1.50;1.40;;;13.30;99.90;;;13.77;80.48;95996.88;5225925;28;20652;-66
2023/03/14 08:41:32;;;;;;;1.63;1.42;;;13.40;99.90;;;13.57;80.55;95995.72;5240262;28;20212;-65
2023/03/14 08:44:06;;;;;;;1.25;1.17;;;13.20;99.90;;;13.38;81.80;95997.13;5225223;28;20244;-65
2023/03/14 08:46:39;;;;;;;1.50;1.40;;;13.00;99.90;;;13.38;82.95;95995.41;5225491;28;20209;-67
2023/03/14 08:49:14;;;;;;;1.98;1.33;;;12.90;99.90;;;13.37;83.35;96001.41;5225060;28;20225;-66
2023/03/14 08:51:48;;;;;;;2.38;1.58;;;12.70;99.90;;;13.33;81.94;96007.31;5231205;28;20261;-65
2023/03/14 08:54:21;;;;;;;1.52;1.30;;;12.80;99.90;;;13.18;82.29;95997.63;5236501;28;20224;-65
2023/03/14 08:56:54;;;;;;;1.88;1.40;;;12.70;99.90;;;13.06;79.73;96005.97;5234164;28;20209;-66
2023/03/14 08:59:27;;;;;;;1.70;1.38;;;12.60;99.90;;;13.13;82.12;96000.94;5241944;28;20205;-65
2023/03/14 09:02:03;;;;;;;1.75;1.65;;;12.60;99.90;;;13.25;83.09;96003.75;5241438;28;20636;-65
2023/03/14 09:04:36;;;;;;;1.50;1.40;;;12.80;99.90;;;13.55;80.15;96010.22;5231730;28;20755;-65
2023/03/14 09:07:11;;;;;;;1.55;1.45;;;13.10;99.90;;;13.98;81.78;96011.72;5258562;28;20309;-66
2023/03/14 09:09:44;;;;;;;1.98;1.25;;;13.60;99.90;;;14.22;75.18;96008.59;5241944;28;20229;-65
2023/03/14 09:12:17;;;;;;;2.33;1.40;;;13.90;99.90;;;14.53;78.06;96009.00;5241535;28;20287;-66
2023/03/14 09:14:50;;;;;;;1.58;1.48;;;14.20;99.90;;;14.60;77.84;96018.53;5240712;28;20742;-64
2023/03/14 09:17:23;;;;;;;1.70;1.35;;;14.10;99.90;;;14.62;75.37;96021.97;5225606;28;20199;-65
2023/03/14 09:19:56;;;;;;;1.60;1.20;;;14.00;99.90;;;14.51;69.39;96026.97;5249811;28;20196;-63
2023/03/14 09:22:35;;;;;;;1.55;1.02;;;13.80;99.90;;;14.51;72.25;96020.97;5225114;28;20201;-64
2023/03/14 09:25:09;;;;;;;1.42;1.33;;;13.80;99.90;;;14.45;71.87;96015.72;5225958;28;20205;-64
2023/03/14 09:27:42;;;;;;;2.35;1.30;;;13.70;99.90;;;14.46;70.93;96022.63;5238784;28;20209;-63
2023/03/14 09:30:15;;;;;;;2.00;1.17;;;13.70;99.90;;;14.53;70.50;96027.00;5225999;28;20228;-64
2023/03/14 09:32:49;;;;;;;1.08;0.98;;;13.80;99.90;;;14.57;70.96;96026.22;5247729;28;20239;-64
2023/03/14 09:35:22;;;;;;;1.30;1.20;;;13.90;99.90;;;14.50;68.90;96020.06;5238266;28;20581;-64
2023/03/14 09:37:56;;;;;;;2.30;1.25;;;13.90;99.90;;;14.31;67.93;96025.88;5234838;28;20722;-64
2023/03/14 09:40:35;;;;;;;2.17;1.13;;;13.70;99.90;;;14.31;66.88;96029.28;5224282;28;20231;-63
2023/03/14 09:43:12;;;;;;;1.02;1.02;;;13.70;99.90;;;14.28;67.02;96031.81;5232771;28;20631;-64
2023/03/14 09:45:49;;;;;;;1.20;1.10;;;13.60;99.90;;;14.18;65.92;96028.25;5232934;28;20199;-64
2023/03/14 09:48:27;;;;;;;1.33;1.10;;;13.50;99.90;;;14.04;65.38;96036.63;5237565;28;20224;-65
2023/03/14 09:51:05;;;;;;;1.20;1.10;;;13.30;99.90;;;14.13;67.31;96031.59;5237347;28;20197;-64
2023/03/14 09:53:44;;;;;;;1.63;1.00;;;13.40;99.90;;;14.08;67.14;96035.81;5224097;28;20229;-64
2023/03/14 09:56:20;;;;;;;1.38;1.05;;;13.30;99.90;;;13.98;66.71;96040.81;5243691;28;20204;-64
2023/03/14 09:58:58;;;;;;;1.17;1.10;;;13.30;99.90;;;13.90;67.79;96042.41;5249375;28;20591;-64
2023/03/14 10:01:35;;;;;;;1.27;0.82;;;13.20;99.90;;;13.91;66.24;96033.03;5242473;28;20205;-63
2023/03/14 10:04:16;;;;;;;1.38;1.10;;;13.30;99.90;;;14.01;67.59;96026.31;5240505;28;20232;-64
2023/03/14 10:06:49;;;;;;;1.17;0.70;;;13.30;99.90;;;14.21;67.16;96037.72;5236093;28;20706;-65
2023/03/14 10:09:25;;;;;;;1.00;0.90;;;13.50;99.90;;;14.39;65.51;96034.50;5240026;28;20250;-64
2023/03/14 10:12:00;;;;;;;1.35;1.00;;;13.80;99.90;;;14.52;65.12;96033.00;5231475;28;20601;-65
2023/03/14 10:14:36;;;;;;;0.98;0.98;;;13.80;99.90;;;14.57;64.76;96032.22;5223472;28;20231;-64
2023/03/14 10:17:11;;;;;;;1.08;0.93;;;13.90;99.90;;;14.61;63.51;96041.66;5224824;28;20197;-64
2023/03/14 10:19:56;;;;;;;0.90;0.90;;;14.00;99.90;;;14.63;62.46;96036.56;5243785;28;20212;-65
2023/03/14 10:22:31;;;;;;;0.90;0.90;;;14.10;99.90;;;14.66;63.38;96057.16;5237809;28;20279;-64
2023/03/14 10:25:26;;;;;;;1.20;1.10;;;14.10;99.90;;;14.65;64.69;96052.88;5228235;28;20562;-64
2023/03/14 10:28:00;;;;;;;1.00;1.00;;;14.00;99.90;;;14.56;63.98;96045.03;5240256;28;20699;-64
2023/03/14 10:30:44;;;;;;;1.20;1.10;;;14.00;99.90;;;14.63;63.95;96042.56;5229412;28;20697;-64
2023/03/14 10:33:23;;;;;;;0.90;0.90;;;14.00;99.90;;;14.51;64.32;96054.38;5238944;28;20228;-63
2023/03/14 10:35:59;;;;;;;1.25;0.90;;;14.00;99.90;;;14.38;65.24;96050.78;5223133;28;20204;-64
2023/03/14 10:38:35;;;;;;;1.00;1.00;;;13.90;99.90;;;14.36;65.64;96053.31;5231845;28;20205;-63
2023/03/14 10:41:19;;;;;;;1.08;0.90;;;13.90;99.90;;;14.40;65.98;96036.25;5231344;28;20193;-64
2023/03/14 10:43:58;;;;;;;0.90;0.90;;;13.90;99.90;;;14.46;66.41;96043.19;5243537;28;20222;-64
2023/03/14 10:46:33;;;;;;;1.13;0.82;;;14.00;99.90;;;14.46;64.77;96036.31;5236719;28;20201;-64
2023/03/14 10:49:07;;;;;;;1.15;1.05;;;14.10;99.90;;;14.45;66.59;96029.47;5228932;28;20394;-64
2023/03/14 10:51:40;;;;;;;0.95;0.90;;;14.10;99.90;;;14.57;67.58;96037.34;5241543;28;20549;-65
2023/03/14 10:54:20;;;;;;;1.15;1.00;;;14.10;99.90;;;14.77;65.35;96032.44;5235031;28;20231;-66